sensor_id;sensor_type;location;lat;lon;timestamp;temperature;humidity
70079;DHT22;57451;52.496;13.456;2022-12-20T00:01:49;4.40;78.90
70079;DHT22;57451;52.496;13.456;2022-12-20T00:04:16;4.40;78.90
70079;DHT22;57451;52.496;13.456;2022-12-20T00:06:43;4.50;78.80
70079;DHT22;57451;52.496;13.456;2022-12-20T00:09:11;4.40;78.50
70079;DHT22;57451;52.496;13.456;2022-12-20T00:11:39;4.40;78.40
70079;DHT22;57451;52.496;13.456;2022-12-20T00:14:09;4.50;78.60
70079;DHT22;57451;52.496;13.456;2022-12-20T00:16:36;4.30;78.30
70079;DHT22;57451;52.496;13.456;2022-12-20T00:19:05;4.30;78.70
70079;DHT22;57451;52.496;13.456;2022-12-20T00:21:34;4.30;78.80
70079;DHT22;57451;52.496;13.456;2022-12-20T00:24:01;4.40;78.60
70079;DHT22;57451;52.496;13.456;2022-12-20T00:26:31;4.40;78.20
70079;DHT22;57451;52.496;13.456;2022-12-20T00:28:59;4.40;78.30
70079;DHT22;57451;52.496;13.456;2022-12-20T00:31:29;4.40;78.40
70079;DHT22;57451;52.496;13.456;2022-12-20T00:33:58;4.50;78.40
70079;DHT22;57451;52.496;13.456;2022-12-20T00:36:28;4.50;78.20
70079;DHT22;57451;52.496;13.456;2022-12-20T00:38:58;4.60;78.10
70079;DHT22;57451;52.496;13.456;2022-12-20T00:41:28;4.60;77.70
70079;DHT22;57451;52.496;13.456;2022-12-20T00:43:56;4.60;77.50
70079;DHT22;57451;52.496;13.456;2022-12-20T00:46:24;4.60;77.50
70079;DHT22;57451;52.496;13.456;2022-12-20T00:48:53;4.60;77.40
70079;DHT22;57451;52.496;13.456;2022-12-20T00:51:22;4.60;77.30
70079;DHT22;57451;52.496;13.456;2022-12-20T00:53:51;4.60;77.30
70079;DHT22;57451;52.496;13.456;2022-12-20T00:56:19;4.60;77.60
70079;DHT22;57451;52.496;13.456;2022-12-20T00:58:47;4.50;77.80
70079;DHT22;57451;52.496;13.456;2022-12-20T01:01:18;4.60;77.80
70079;DHT22;57451;52.496;13.456;2022-12-20T01:03:47;4.70;77.60
70079;DHT22;57451;52.496;13.456;2022-12-20T01:06:17;4.70;77.00
70079;DHT22;57451;52.496;13.456;2022-12-20T01:08:45;4.70;76.90
70079;DHT22;57451;52.496;13.456;2022-12-20T01:11:14;4.60;77.00
70079;DHT22;57451;52.496;13.456;2022-12-20T01:13:44;4.60;77.00
70079;DHT22;57451;52.496;13.456;2022-12-20T01:16:14;4.60;76.70
70079;DHT22;57451;52.496;13.456;2022-12-20T01:18:42;4.60;76.90
70079;DHT22;57451;52.496;13.456;2022-12-20T01:21:12;4.70;76.70
70079;DHT22;57451;52.496;13.456;2022-12-20T01:23:42;4.60;76.90
70079;DHT22;57451;52.496;13.456;2022-12-20T01:26:12;4.60;77.00
70079;DHT22;57451;52.496;13.456;2022-12-20T01:28:41;4.70;76.70
70079;DHT22;57451;52.496;13.456;2022-12-20T01:31:10;4.70;76.40
70079;DHT22;57451;52.496;13.456;2022-12-20T01:33:39;4.70;76.50
70079;DHT22;57451;52.496;13.456;2022-12-20T01:36:09;4.70;76.40
70079;DHT22;57451;52.496;13.456;2022-12-20T01:38:36;4.70;76.60
70079;DHT22;57451;52.496;13.456;2022-12-20T01:41:06;4.70;76.40
70079;DHT22;57451;52.496;13.456;2022-12-20T01:43:50;4.70;76.40
70079;DHT22;57451;52.496;13.456;2022-12-20T01:46:19;4.70;76.30
70079;DHT22;57451;52.496;13.456;2022-12-20T01:48:49;4.60;76.70
70079;DHT22;57451;52.496;13.456;2022-12-20T01:51:18;4.70;76.40
70079;DHT22;57451;52.496;13.456;2022-12-20T01:53:47;4.70;76.50
70079;DHT22;57451;52.496;13.456;2022-12-20T01:56:18;4.80;76.50
70079;DHT22;57451;52.496;13.456;2022-12-20T01:58:46;4.80;76.20
70079;DHT22;57451;52.496;13.456;2022-12-20T02:01:15;4.80;76.20
70079;DHT22;57451;52.496;13.456;2022-12-20T02:03:42;4.80;76.00
70079;DHT22;57451;52.496;13.456;2022-12-20T02:06:16;4.80;76.20
70079;DHT22;57451;52.496;13.456;2022-12-20T02:08:46;4.70;76.30
70079;DHT22;57451;52.496;13.456;2022-12-20T02:11:27;4.80;76.10
70079;DHT22;57451;52.496;13.456;2022-12-20T02:14:04;4.80;76.00
70079;DHT22;57451;52.496;13.456;2022-12-20T02:16:39;4.80;76.10
70079;DHT22;57451;52.496;13.456;2022-12-20T02:19:24;4.90;75.90
70079;DHT22;57451;52.496;13.456;2022-12-20T02:22:08;4.90;75.90
70079;DHT22;57451;52.496;13.456;2022-12-20T02:27:53;4.90;76.10
70079;DHT22;57451;52.496;13.456;2022-12-20T02:30:27;4.90;75.90
70079;DHT22;57451;52.496;13.456;2022-12-20T02:32:59;4.90;75.50
70079;DHT22;57451;52.496;13.456;2022-12-20T02:35:30;4.90;75.50
70079;DHT22;57451;52.496;13.456;2022-12-20T02:38:00;4.90;75.70
70079;DHT22;57451;52.496;13.456;2022-12-20T02:40:31;4.90;75.90
70079;DHT22;57451;52.496;13.456;2022-12-20T02:43:03;4.90;75.90
70079;DHT22;57451;52.496;13.456;2022-12-20T02:45:53;4.80;76.20
70079;DHT22;57451;52.496;13.456;2022-12-20T02:48:23;4.80;75.80
70079;DHT22;57451;52.496;13.456;2022-12-20T02:50:53;4.80;76.00
70079;DHT22;57451;52.496;13.456;2022-12-20T02:53:22;4.90;75.90
70079;DHT22;57451;52.496;13.456;2022-12-20T02:55:53;5.00;75.80
70079;DHT22;57451;52.496;13.456;2022-12-20T02:58:31;5.00;75.50
70079;DHT22;57451;52.496;13.456;2022-12-20T03:01:06;5.10;75.40
70079;DHT22;57451;52.496;13.456;2022-12-20T03:03:35;5.10;75.10
70079;DHT22;57451;52.496;13.456;2022-12-20T03:06:03;5.10;75.20
70079;DHT22;57451;52.496;13.456;2022-12-20T03:08:31;5.10;74.90
70079;DHT22;57451;52.496;13.456;2022-12-20T03:10:59;5.10;74.90
70079;DHT22;57451;52.496;13.456;2022-12-20T03:13:29;5.10;75.20
70079;DHT22;57451;52.496;13.456;2022-12-20T03:16:02;5.10;74.90
70079;DHT22;57451;52.496;13.456;2022-12-20T03:18:30;5.10;74.90
70079;DHT22;57451;52.496;13.456;2022-12-20T03:20:57;5.10;74.90
70079;DHT22;57451;52.496;13.456;2022-12-20T03:23:25;5.10;74.80
70079;DHT22;57451;52.496;13.456;2022-12-20T03:25:52;5.10;75.00
70079;DHT22;57451;52.496;13.456;2022-12-20T03:28:28;5.10;74.80
70079;DHT22;57451;52.496;13.456;2022-12-20T03:30:56;5.20;74.70
70079;DHT22;57451;52.496;13.456;2022-12-20T03:33:25;5.10;74.60
70079;DHT22;57451;52.496;13.456;2022-12-20T03:35:53;5.00;75.00
70079;DHT22;57451;52.496;13.456;2022-12-20T03:38:21;5.10;75.40
70079;DHT22;57451;52.496;13.456;2022-12-20T03:40:48;5.00;75.30
70079;DHT22;57451;52.496;13.456;2022-12-20T03:43:19;5.10;75.40
70079;DHT22;57451;52.496;13.456;2022-12-20T03:45:47;5.10;75.30
70079;DHT22;57451;52.496;13.456;2022-12-20T03:48:14;5.20;74.60
70079;DHT22;57451;52.496;13.456;2022-12-20T03:50:43;5.20;74.80
70079;DHT22;57451;52.496;13.456;2022-12-20T03:53:10;5.20;74.90
70079;DHT22;57451;52.496;13.456;2022-12-20T03:55:37;5.30;75.00
70079;DHT22;57451;52.496;13.456;2022-12-20T03:58:05;5.30;74.40
70079;DHT22;57451;52.496;13.456;2022-12-20T04:00:36;5.30;74.30
70079;DHT22;57451;52.496;13.456;2022-12-20T04:03:26;5.30;74.10
70079;DHT22;57451;52.496;13.456;2022-12-20T04:05:56;5.40;74.40
70079;DHT22;57451;52.496;13.456;2022-12-20T04:08:23;5.40;74.30
70079;DHT22;57451;52.496;13.456;2022-12-20T04:10:51;5.40;74.40
70079;DHT22;57451;52.496;13.456;2022-12-20T04:14:01;5.40;74.10
70079;DHT22;57451;52.496;13.456;2022-12-20T04:16:29;5.40;74.30
70079;DHT22;57451;52.496;13.456;2022-12-20T04:18:57;5.40;74.70
70079;DHT22;57451;52.496;13.456;2022-12-20T04:21:32;5.30;74.40
70079;DHT22;57451;52.496;13.456;2022-12-20T04:24:01;5.40;74.30
70079;DHT22;57451;52.496;13.456;2022-12-20T04:26:38;5.40;74.40
70079;DHT22;57451;52.496;13.456;2022-12-20T04:29:06;5.40;74.10
70079;DHT22;57451;52.496;13.456;2022-12-20T04:31:34;5.40;74.30
70079;DHT22;57451;52.496;13.456;2022-12-20T04:34:02;5.40;74.30
70079;DHT22;57451;52.496;13.456;2022-12-20T04:36:33;5.40;74.40
70079;DHT22;57451;52.496;13.456;2022-12-20T04:39:04;5.40;74.20
70079;DHT22;57451;52.496;13.456;2022-12-20T04:41:41;5.40;74.20
70079;DHT22;57451;52.496;13.456;2022-12-20T04:44:12;5.40;74.30
70079;DHT22;57451;52.496;13.456;2022-12-20T04:46:39;5.40;74.20
70079;DHT22;57451;52.496;13.456;2022-12-20T04:49:11;5.30;74.60
70079;DHT22;57451;52.496;13.456;2022-12-20T04:51:43;5.30;74.40
70079;DHT22;57451;52.496;13.456;2022-12-20T04:54:13;5.30;74.50
70079;DHT22;57451;52.496;13.456;2022-12-20T04:56:52;5.40;74.40
70079;DHT22;57451;52.496;13.456;2022-12-20T04:59:21;5.40;74.10
70079;DHT22;57451;52.496;13.456;2022-12-20T05:01:51;5.30;74.60
70079;DHT22;57451;52.496;13.456;2022-12-20T05:04:36;5.20;74.70
70079;DHT22;57451;52.496;13.456;2022-12-20T05:07:06;5.20;74.90
70079;DHT22;57451;52.496;13.456;2022-12-20T05:09:35;5.20;74.90
70079;DHT22;57451;52.496;13.456;2022-12-20T05:12:02;5.20;74.80
70079;DHT22;57451;52.496;13.456;2022-12-20T05:14:30;5.20;74.80
70079;DHT22;57451;52.496;13.456;2022-12-20T05:16:58;5.20;74.70
70079;DHT22;57451;52.496;13.456;2022-12-20T05:19:26;5.20;74.70
70079;DHT22;57451;52.496;13.456;2022-12-20T05:21:54;5.20;74.80
70079;DHT22;57451;52.496;13.456;2022-12-20T05:24:45;5.10;74.90
70079;DHT22;57451;52.496;13.456;2022-12-20T05:27:36;5.20;75.00
70079;DHT22;57451;52.496;13.456;2022-12-20T05:30:04;5.10;74.90
70079;DHT22;57451;52.496;13.456;2022-12-20T05:32:32;5.10;75.10
70079;DHT22;57451;52.496;13.456;2022-12-20T05:35:00;5.10;75.30
70079;DHT22;57451;52.496;13.456;2022-12-20T05:37:28;5.20;75.00
70079;DHT22;57451;52.496;13.456;2022-12-20T05:40:05;5.10;75.20
70079;DHT22;57451;52.496;13.456;2022-12-20T05:42:33;5.10;75.20
70079;DHT22;57451;52.496;13.456;2022-12-20T05:45:01;5.10;75.30
70079;DHT22;57451;52.496;13.456;2022-12-20T05:47:32;5.00;75.60
70079;DHT22;57451;52.496;13.456;2022-12-20T05:50:07;5.10;75.50
70079;DHT22;57451;52.496;13.456;2022-12-20T05:53:02;5.10;75.50
70079;DHT22;57451;52.496;13.456;2022-12-20T05:55:43;5.10;75.40
70079;DHT22;57451;52.496;13.456;2022-12-20T05:58:11;5.10;75.50
70079;DHT22;57451;52.496;13.456;2022-12-20T06:00:49;5.20;75.70
70079;DHT22;57451;52.496;13.456;2022-12-20T06:03:16;5.20;75.60
70079;DHT22;57451;52.496;13.456;2022-12-20T06:05:45;5.30;75.60
70079;DHT22;57451;52.496;13.456;2022-12-20T06:08:18;5.30;75.50
70079;DHT22;57451;52.496;13.456;2022-12-20T06:10:47;5.30;75.50
70079;DHT22;57451;52.496;13.456;2022-12-20T06:13:16;5.20;75.90
70079;DHT22;57451;52.496;13.456;2022-12-20T06:15:44;5.40;75.80
70079;DHT22;57451;52.496;13.456;2022-12-20T06:18:11;5.40;75.60
70079;DHT22;57451;52.496;13.456;2022-12-20T06:20:40;5.40;75.60
70079;DHT22;57451;52.496;13.456;2022-12-20T06:23:12;5.40;75.90
70079;DHT22;57451;52.496;13.456;2022-12-20T06:25:47;5.50;75.70
70079;DHT22;57451;52.496;13.456;2022-12-20T06:28:15;5.50;76.00
70079;DHT22;57451;52.496;13.456;2022-12-20T06:30:51;5.50;76.00
70079;DHT22;57451;52.496;13.456;2022-12-20T06:33:31;5.60;76.00
70079;DHT22;57451;52.496;13.456;2022-12-20T06:35:58;5.60;76.00
70079;DHT22;57451;52.496;13.456;2022-12-20T06:38:26;5.60;76.00
70079;DHT22;57451;52.496;13.456;2022-12-20T06:40:54;5.60;76.20
70079;DHT22;57451;52.496;13.456;2022-12-20T06:43:22;5.50;76.50
70079;DHT22;57451;52.496;13.456;2022-12-20T06:45:49;5.60;76.60
70079;DHT22;57451;52.496;13.456;2022-12-20T06:48:16;5.70;76.80
70079;DHT22;57451;52.496;13.456;2022-12-20T06:50:44;5.70;76.70
70079;DHT22;57451;52.496;13.456;2022-12-20T06:53:19;5.70;76.90
70079;DHT22;57451;52.496;13.456;2022-12-20T06:55:47;5.70;77.10
70079;DHT22;57451;52.496;13.456;2022-12-20T06:58:18;5.70;77.30
70079;DHT22;57451;52.496;13.456;2022-12-20T07:00:47;5.70;77.40
70079;DHT22;57451;52.496;13.456;2022-12-20T07:03:15;5.80;77.40
70079;DHT22;57451;52.496;13.456;2022-12-20T07:05:42;5.70;77.60
70079;DHT22;57451;52.496;13.456;2022-12-20T07:08:10;5.70;77.90
70079;DHT22;57451;52.496;13.456;2022-12-20T07:10:37;5.70;78.00
70079;DHT22;57451;52.496;13.456;2022-12-20T07:13:04;5.70;78.00
70079;DHT22;57451;52.496;13.456;2022-12-20T07:15:33;5.80;78.40
70079;DHT22;57451;52.496;13.456;2022-12-20T07:18:01;5.80;78.40
70079;DHT22;57451;52.496;13.456;2022-12-20T07:20:29;5.80;78.50
70079;DHT22;57451;52.496;13.456;2022-12-20T07:22:56;5.80;78.60
70079;DHT22;57451;52.496;13.456;2022-12-20T07:25:24;5.80;78.70
70079;DHT22;57451;52.496;13.456;2022-12-20T07:27:52;5.90;79.90
70079;DHT22;57451;52.496;13.456;2022-12-20T07:30:20;6.00;80.60
70079;DHT22;57451;52.496;13.456;2022-12-20T07:32:49;6.00;80.30
70079;DHT22;57451;52.496;13.456;2022-12-20T07:35:17;6.10;79.90
70079;DHT22;57451;52.496;13.456;2022-12-20T07:37:44;6.10;79.80
70079;DHT22;57451;52.496;13.456;2022-12-20T07:40:13;6.10;79.80
70079;DHT22;57451;52.496;13.456;2022-12-20T07:42:42;6.20;79.50
70079;DHT22;57451;52.496;13.456;2022-12-20T07:45:15;6.20;79.00
70079;DHT22;57451;52.496;13.456;2022-12-20T07:47:42;6.30;79.00
70079;DHT22;57451;52.496;13.456;2022-12-20T07:50:11;6.30;78.80
70079;DHT22;57451;52.496;13.456;2022-12-20T07:52:40;6.40;78.50
70079;DHT22;57451;52.496;13.456;2022-12-20T07:55:08;6.30;78.60
70079;DHT22;57451;52.496;13.456;2022-12-20T07:57:39;6.30;78.80
70079;DHT22;57451;52.496;13.456;2022-12-20T08:00:08;6.30;78.70
70079;DHT22;57451;52.496;13.456;2022-12-20T08:02:42;6.30;78.80
70079;DHT22;57451;52.496;13.456;2022-12-20T08:05:14;6.30;78.60
70079;DHT22;57451;52.496;13.456;2022-12-20T08:07:43;6.40;78.70
70079;DHT22;57451;52.496;13.456;2022-12-20T08:10:13;6.40;78.50
70079;DHT22;57451;52.496;13.456;2022-12-20T08:12:42;6.40;78.60
70079;DHT22;57451;52.496;13.456;2022-12-20T08:15:11;6.40;79.00
70079;DHT22;57451;52.496;13.456;2022-12-20T08:17:39;6.40;79.00
70079;DHT22;57451;52.496;13.456;2022-12-20T08:20:07;6.40;79.10
70079;DHT22;57451;52.496;13.456;2022-12-20T08:22:36;6.50;79.10
70079;DHT22;57451;52.496;13.456;2022-12-20T08:25:04;6.40;79.30
70079;DHT22;57451;52.496;13.456;2022-12-20T08:27:31;6.40;79.50
70079;DHT22;57451;52.496;13.456;2022-12-20T08:29:59;6.40;79.50
70079;DHT22;57451;52.496;13.456;2022-12-20T08:32:27;6.40;79.70
70079;DHT22;57451;52.496;13.456;2022-12-20T08:34:55;6.40;79.80
70079;DHT22;57451;52.496;13.456;2022-12-20T08:37:22;6.40;79.70
70079;DHT22;57451;52.496;13.456;2022-12-20T08:39:51;6.40;79.80
70079;DHT22;57451;52.496;13.456;2022-12-20T08:42:18;6.50;79.80
70079;DHT22;57451;52.496;13.456;2022-12-20T08:44:45;6.50;80.00
70079;DHT22;57451;52.496;13.456;2022-12-20T08:47:13;6.50;79.90
70079;DHT22;57451;52.496;13.456;2022-12-20T08:49:40;6.50;79.80
70079;DHT22;57451;52.496;13.456;2022-12-20T08:52:14;6.50;80.00
70079;DHT22;57451;52.496;13.456;2022-12-20T08:54:41;6.50;80.00
70079;DHT22;57451;52.496;13.456;2022-12-20T08:57:10;6.50;80.20
70079;DHT22;57451;52.496;13.456;2022-12-20T08:59:37;6.50;80.10
70079;DHT22;57451;52.496;13.456;2022-12-20T09:02:05;6.60;80.10
70079;DHT22;57451;52.496;13.456;2022-12-20T09:04:32;6.60;80.10
70079;DHT22;57451;52.496;13.456;2022-12-20T09:07:00;6.60;80.10
70079;DHT22;57451;52.496;13.456;2022-12-20T09:09:27;6.60;80.20
70079;DHT22;57451;52.496;13.456;2022-12-20T09:11:54;6.60;80.40
70079;DHT22;57451;52.496;13.456;2022-12-20T09:14:23;6.60;80.50
70079;DHT22;57451;52.496;13.456;2022-12-20T09:16:50;6.50;80.60
70079;DHT22;57451;52.496;13.456;2022-12-20T09:19:18;6.60;80.90
70079;DHT22;57451;52.496;13.456;2022-12-20T09:21:45;6.60;80.90
70079;DHT22;57451;52.496;13.456;2022-12-20T09:24:14;6.60;81.30
70079;DHT22;57451;52.496;13.456;2022-12-20T09:26:41;6.70;81.10
70079;DHT22;57451;52.496;13.456;2022-12-20T09:29:11;6.60;81.20
70079;DHT22;57451;52.496;13.456;2022-12-20T09:31:41;6.70;81.20
70079;DHT22;57451;52.496;13.456;2022-12-20T09:34:10;6.80;80.90
70079;DHT22;57451;52.496;13.456;2022-12-20T09:36:37;6.80;81.00
70079;DHT22;57451;52.496;13.456;2022-12-20T09:39:04;6.90;80.80
70079;DHT22;57451;52.496;13.456;2022-12-20T09:41:34;6.90;81.00
70079;DHT22;57451;52.496;13.456;2022-12-20T09:44:11;6.90;81.00
70079;DHT22;57451;52.496;13.456;2022-12-20T09:46:42;7.00;80.90
70079;DHT22;57451;52.496;13.456;2022-12-20T09:49:14;7.10;80.70
70079;DHT22;57451;52.496;13.456;2022-12-20T09:51:56;7.30;80.30
70079;DHT22;57451;52.496;13.456;2022-12-20T09:54:35;7.20;80.20
70079;DHT22;57451;52.496;13.456;2022-12-20T09:57:10;7.30;80.50
70079;DHT22;57451;52.496;13.456;2022-12-20T09:59:42;7.50;80.50
70079;DHT22;57451;52.496;13.456;2022-12-20T10:02:21;7.60;80.10
70079;DHT22;57451;52.496;13.456;2022-12-20T10:05:13;7.70;79.90
70079;DHT22;57451;52.496;13.456;2022-12-20T10:07:47;7.90;78.90
70079;DHT22;57451;52.496;13.456;2022-12-20T10:10:48;8.10;78.30
70079;DHT22;57451;52.496;13.456;2022-12-20T10:13:29;8.20;78.20
70079;DHT22;57451;52.496;13.456;2022-12-20T10:16:06;8.40;77.00
70079;DHT22;57451;52.496;13.456;2022-12-20T10:18:49;8.40;76.30
70079;DHT22;57451;52.496;13.456;2022-12-20T10:21:27;8.40;76.30
70079;DHT22;57451;52.496;13.456;2022-12-20T10:24:00;8.50;76.00
70079;DHT22;57451;52.496;13.456;2022-12-20T10:26:28;8.50;76.20
70079;DHT22;57451;52.496;13.456;2022-12-20T10:28:56;8.60;75.30
70079;DHT22;57451;52.496;13.456;2022-12-20T10:31:24;8.50;75.70
70079;DHT22;57451;52.496;13.456;2022-12-20T10:33:53;8.50;74.90
70079;DHT22;57451;52.496;13.456;2022-12-20T10:36:22;8.40;74.60
70079;DHT22;57451;52.496;13.456;2022-12-20T10:38:53;8.40;75.20
70079;DHT22;57451;52.496;13.456;2022-12-20T10:41:22;8.40;75.10
70079;DHT22;57451;52.496;13.456;2022-12-20T10:43:54;8.50;75.40
70079;DHT22;57451;52.496;13.456;2022-12-20T10:46:23;8.60;75.10
70079;DHT22;57451;52.496;13.456;2022-12-20T10:49:20;8.60;74.90
70079;DHT22;57451;52.496;13.456;2022-12-20T10:51:51;8.60;74.50
70079;DHT22;57451;52.496;13.456;2022-12-20T10:54:22;8.70;75.50
70079;DHT22;57451;52.496;13.456;2022-12-20T10:56:54;8.80;75.20
70079;DHT22;57451;52.496;13.456;2022-12-20T10:59:29;8.90;73.90
70079;DHT22;57451;52.496;13.456;2022-12-20T11:01:58;9.10;73.90
70079;DHT22;57451;52.496;13.456;2022-12-20T11:04:28;9.20;72.80
70079;DHT22;57451;52.496;13.456;2022-12-20T11:06:57;9.30;72.60
70079;DHT22;57451;52.496;13.456;2022-12-20T11:09:28;9.30;73.00
70079;DHT22;57451;52.496;13.456;2022-12-20T11:12:04;9.30;71.80
70079;DHT22;57451;52.496;13.456;2022-12-20T11:14:33;9.40;70.90
70079;DHT22;57451;52.496;13.456;2022-12-20T11:17:24;9.30;71.00
70079;DHT22;57451;52.496;13.456;2022-12-20T11:20:11;9.40;71.40
70079;DHT22;57451;52.496;13.456;2022-12-20T11:22:50;9.30;70.50
70079;DHT22;57451;52.496;13.456;2022-12-20T11:25:40;9.30;70.80
70079;DHT22;57451;52.496;13.456;2022-12-20T11:28:22;9.20;71.10
70079;DHT22;57451;52.496;13.456;2022-12-20T11:31:03;9.10;71.50
70079;DHT22;57451;52.496;13.456;2022-12-20T11:33:48;9.10;71.60
70079;DHT22;57451;52.496;13.456;2022-12-20T11:36:24;9.10;71.40
70079;DHT22;57451;52.496;13.456;2022-12-20T11:39:04;9.00;71.70
70079;DHT22;57451;52.496;13.456;2022-12-20T11:41:43;9.10;71.80
70079;DHT22;57451;52.496;13.456;2022-12-20T11:44:20;9.10;71.50
70079;DHT22;57451;52.496;13.456;2022-12-20T11:47:03;9.00;72.30
70079;DHT22;57451;52.496;13.456;2022-12-20T11:50:02;9.10;72.20
70079;DHT22;57451;52.496;13.456;2022-12-20T11:52:34;9.10;71.60
70079;DHT22;57451;52.496;13.456;2022-12-20T11:55:14;9.10;71.40
70079;DHT22;57451;52.496;13.456;2022-12-20T11:57:54;9.10;71.80
70079;DHT22;57451;52.496;13.456;2022-12-20T12:00:48;9.20;71.50
70079;DHT22;57451;52.496;13.456;2022-12-20T12:03:20;9.10;71.30
70079;DHT22;57451;52.496;13.456;2022-12-20T12:05:53;9.10;71.10
70079;DHT22;57451;52.496;13.456;2022-12-20T12:08:30;9.10;71.50
70079;DHT22;57451;52.496;13.456;2022-12-20T12:11:00;9.00;71.40
70079;DHT22;57451;52.496;13.456;2022-12-20T12:13:32;9.00;71.80
70079;DHT22;57451;52.496;13.456;2022-12-20T12:16:07;9.00;72.00
70079;DHT22;57451;52.496;13.456;2022-12-20T12:18:36;9.00;71.60
70079;DHT22;57451;52.496;13.456;2022-12-20T12:21:09;8.90;71.90
70079;DHT22;57451;52.496;13.456;2022-12-20T12:23:45;9.00;72.10
70079;DHT22;57451;52.496;13.456;2022-12-20T12:26:20;9.00;72.30
70079;DHT22;57451;52.496;13.456;2022-12-20T12:28:52;9.00;72.30
70079;DHT22;57451;52.496;13.456;2022-12-20T12:31:24;9.00;72.10
70079;DHT22;57451;52.496;13.456;2022-12-20T12:34:02;8.90;72.10
70079;DHT22;57451;52.496;13.456;2022-12-20T12:36:42;8.90;72.70
70079;DHT22;57451;52.496;13.456;2022-12-20T12:39:43;9.00;72.60
70079;DHT22;57451;52.496;13.456;2022-12-20T12:42:28;9.00;72.00
70079;DHT22;57451;52.496;13.456;2022-12-20T12:45:01;9.10;71.90
70079;DHT22;57451;52.496;13.456;2022-12-20T12:47:36;9.10;72.10
70079;DHT22;57451;52.496;13.456;2022-12-20T12:50:08;9.10;71.70
70079;DHT22;57451;52.496;13.456;2022-12-20T12:52:44;9.00;71.80
70079;DHT22;57451;52.496;13.456;2022-12-20T12:55:41;9.00;71.90
70079;DHT22;57451;52.496;13.456;2022-12-20T13:01:47;8.90;72.10
70079;DHT22;57451;52.496;13.456;2022-12-20T13:04:29;9.00;72.30
70079;DHT22;57451;52.496;13.456;2022-12-20T13:07:27;9.00;72.00
70079;DHT22;57451;52.496;13.456;2022-12-20T13:09:57;8.90;72.00
70079;DHT22;57451;52.496;13.456;2022-12-20T13:12:56;8.90;72.30
70079;DHT22;57451;52.496;13.456;2022-12-20T13:15:50;8.90;72.30
70079;DHT22;57451;52.496;13.456;2022-12-20T13:18:25;9.00;71.80
70079;DHT22;57451;52.496;13.456;2022-12-20T13:27:24;9.10;71.50
70079;DHT22;57451;52.496;13.456;2022-12-20T13:29:56;9.10;70.80
70079;DHT22;57451;52.496;13.456;2022-12-20T13:38:54;8.90;70.70
70079;DHT22;57451;52.496;13.456;2022-12-20T13:41:30;8.90;70.50
70079;DHT22;57451;52.496;13.456;2022-12-20T13:44:27;8.80;71.00
70079;DHT22;57451;52.496;13.456;2022-12-20T13:47:03;8.80;70.70
70079;DHT22;57451;52.496;13.456;2022-12-20T13:49:36;8.80;70.50
70079;DHT22;57451;52.496;13.456;2022-12-20T13:52:23;8.80;70.10
70079;DHT22;57451;52.496;13.456;2022-12-20T13:54:53;8.70;69.80
70079;DHT22;57451;52.496;13.456;2022-12-20T13:57:26;8.60;70.10
70079;DHT22;57451;52.496;13.456;2022-12-20T13:59:58;8.70;70.20
70079;DHT22;57451;52.496;13.456;2022-12-20T14:02:35;8.60;69.50
70079;DHT22;57451;52.496;13.456;2022-12-20T14:05:14;8.50;69.80
70079;DHT22;57451;52.496;13.456;2022-12-20T14:07:42;8.50;70.40
70079;DHT22;57451;52.496;13.456;2022-12-20T14:10:18;8.50;70.20
70079;DHT22;57451;52.496;13.456;2022-12-20T14:12:47;8.50;69.90
70079;DHT22;57451;52.496;13.456;2022-12-20T14:15:24;8.50;69.80
70079;DHT22;57451;52.496;13.456;2022-12-20T14:17:52;8.40;69.90
70079;DHT22;57451;52.496;13.456;2022-12-20T14:20:22;8.40;70.60
70079;DHT22;57451;52.496;13.456;2022-12-20T14:22:54;8.50;69.70
70079;DHT22;57451;52.496;13.456;2022-12-20T14:25:35;8.40;69.70
70079;DHT22;57451;52.496;13.456;2022-12-20T14:28:04;8.40;69.40
70079;DHT22;57451;52.496;13.456;2022-12-20T14:30:42;8.30;69.70
70079;DHT22;57451;52.496;13.456;2022-12-20T14:33:18;8.30;69.40
70079;DHT22;57451;52.496;13.456;2022-12-20T14:35:47;8.30;69.70
70079;DHT22;57451;52.496;13.456;2022-12-20T14:38:20;8.20;69.50
70079;DHT22;57451;52.496;13.456;2022-12-20T14:40:48;8.20;69.70
70079;DHT22;57451;52.496;13.456;2022-12-20T14:43:25;8.20;69.30
70079;DHT22;57451;52.496;13.456;2022-12-20T14:46:18;8.30;69.30
70079;DHT22;57451;52.496;13.456;2022-12-20T14:48:46;8.20;69.30
70079;DHT22;57451;52.496;13.456;2022-12-20T14:51:18;8.20;69.60
70079;DHT22;57451;52.496;13.456;2022-12-20T14:53:48;8.30;69.20
70079;DHT22;57451;52.496;13.456;2022-12-20T14:56:17;8.20;69.40
70079;DHT22;57451;52.496;13.456;2022-12-20T14:59:02;8.30;69.20
70079;DHT22;57451;52.496;13.456;2022-12-20T15:01:32;8.20;69.70
70079;DHT22;57451;52.496;13.456;2022-12-20T15:04:30;8.20;69.80
70079;DHT22;57451;52.496;13.456;2022-12-20T15:06:58;8.20;69.50
70079;DHT22;57451;52.496;13.456;2022-12-20T15:09:25;8.20;69.30
70079;DHT22;57451;52.496;13.456;2022-12-20T15:11:53;8.20;69.20
70079;DHT22;57451;52.496;13.456;2022-12-20T15:14:31;8.10;69.00
70079;DHT22;57451;52.496;13.456;2022-12-20T15:17:02;8.00;69.70
70079;DHT22;57451;52.496;13.456;2022-12-20T15:19:30;8.00;69.50
70079;DHT22;57451;52.496;13.456;2022-12-20T15:22:05;8.00;69.50
70079;DHT22;57451;52.496;13.456;2022-12-20T15:24:36;8.00;69.40
70079;DHT22;57451;52.496;13.456;2022-12-20T15:27:05;8.10;69.30
70079;DHT22;57451;52.496;13.456;2022-12-20T15:29:38;8.10;69.10
70079;DHT22;57451;52.496;13.456;2022-12-20T15:32:14;8.00;69.00
70079;DHT22;57451;52.496;13.456;2022-12-20T15:34:42;8.00;69.00
70079;DHT22;57451;52.496;13.456;2022-12-20T15:37:13;8.00;69.10
70079;DHT22;57451;52.496;13.456;2022-12-20T15:39:45;8.00;68.80
70079;DHT22;57451;52.496;13.456;2022-12-20T15:42:15;8.00;68.90
70079;DHT22;57451;52.496;13.456;2022-12-20T15:44:43;7.90;69.00
70079;DHT22;57451;52.496;13.456;2022-12-20T15:47:13;7.80;69.50
70079;DHT22;57451;52.496;13.456;2022-12-20T15:49:40;7.80;69.20
70079;DHT22;57451;52.496;13.456;2022-12-20T15:52:18;7.70;69.80
70079;DHT22;57451;52.496;13.456;2022-12-20T15:54:47;7.80;69.80
70079;DHT22;57451;52.496;13.456;2022-12-20T15:57:15;7.80;69.70
70079;DHT22;57451;52.496;13.456;2022-12-20T15:59:42;7.80;69.30
70079;DHT22;57451;52.496;13.456;2022-12-20T16:02:38;7.80;69.60
70079;DHT22;57451;52.496;13.456;2022-12-20T16:05:10;7.60;69.90
70079;DHT22;57451;52.496;13.456;2022-12-20T16:07:38;7.60;70.10
70079;DHT22;57451;52.496;13.456;2022-12-20T16:10:06;7.60;70.20
70079;DHT22;57451;52.496;13.456;2022-12-20T16:12:34;7.60;70.10
70079;DHT22;57451;52.496;13.456;2022-12-20T16:15:02;7.70;69.60
70079;DHT22;57451;52.496;13.456;2022-12-20T16:17:30;7.60;69.70
70079;DHT22;57451;52.496;13.456;2022-12-20T16:19:58;7.50;69.90
70079;DHT22;57451;52.496;13.456;2022-12-20T16:22:26;7.50;69.40